Time;durP1;ratioP1;P1;durP2;ratioP2;P2;SDS_P1;SDS_P2;PMS_P1;PMS_P2;Temp;Humidity;BMP_temperature;BMP_pressure;BME280_temperature;BME280_humidity;BME280_pressure;Samples;Min_cycle;Max_cycle;Signal;HPM_P1;HPM_P2
2023/08/01 00:00:47;;;;;;;17.67;5.22;;;;;;;;;;5016918;28;20045;-77
2023/08/01 00:03:13;;;;;;;14.68;4.72;;;;;;;;;;5018649;28;20963;-80
2023/08/01 00:05:44;;;;;;;15.85;4.85;;;;;;;;;;5018404;28;20033;-81
2023/08/01 00:08:09;;;;;;;15.50;4.60;;;;;;;;;;5018702;28;20151;-77
2023/08/01 00:10:36;;;;;;;17.98;5.10;;;;;;;;;;5018803;28;20029;-78
2023/08/01 00:13:07;;;;;;;20.80;5.78;;;;;;;;;;5020492;28;20037;-80
2023/08/01 00:15:32;;;;;;;22.15;5.00;;;;;;;;;;5016148;28;20661;-80
2023/08/01 00:17:58;;;;;;;16.60;5.28;;;;;;;;;;5018072;28;20040;-83
2023/08/01 00:20:23;;;;;;;15.70;4.63;;;;;;;;;;5020935;28;20552;-77
2023/08/01 00:22:48;;;;;;;17.27;4.90;;;;;;;;;;4995461;28;20148;-79
2023/08/01 00:25:14;;;;;;;20.58;5.43;;;;;;;;;;5018475;28;20025;-79
2023/08/01 00:27:39;;;;;;;15.70;5.32;;;;;;;;;;5005450;28;20128;-77
2023/08/01 00:30:05;;;;;;;24.60;5.53;;;;;;;;;;5020930;28;20375;-78
2023/08/01 00:32:30;;;;;;;16.48;4.95;;;;;;;;;;5020240;28;20112;-77
2023/08/01 00:34:55;;;;;;;18.67;5.18;;;;;;;;;;4993573;28;20108;-79
2023/08/01 00:37:20;;;;;;;23.88;5.45;;;;;;;;;;5017764;28;20098;-78
2023/08/01 00:39:46;;;;;;;16.55;5.00;;;;;;;;;;5021270;28;20099;-80
2023/08/01 00:42:11;;;;;;;20.45;5.45;;;;;;;;;;5019966;28;20135;-80
2023/08/01 00:44:36;;;;;;;15.25;4.75;;;;;;;;;;4982032;28;20044;-78
2023/08/01 00:47:01;;;;;;;18.55;5.68;;;;;;;;;;5018852;28;20037;-76
2023/08/01 00:49:27;;;;;;;17.75;4.82;;;;;;;;;;5018214;28;20072;-80
2023/08/01 00:51:52;;;;;;;18.70;4.88;;;;;;;;;;5020644;28;22266;-78
2023/08/01 00:54:18;;;;;;;19.13;5.32;;;;;;;;;;4990459;28;20040;-78
2023/08/01 00:56:44;;;;;;;20.17;5.30;;;;;;;;;;5015247;28;20033;-80
2023/08/01 00:59:09;;;;;;;17.80;4.97;;;;;;;;;;5019179;28;20048;-81
2023/08/01 01:01:35;;;;;;;18.00;5.10;;;;;;;;;;5004132;28;20037;-82
2023/08/01 01:04:00;;;;;;;18.27;5.20;;;;;;;;;;5016689;28;20040;-78
2023/08/01 01:06:28;;;;;;;16.38;4.85;;;;;;;;;;5000298;28;20457;-80
2023/08/01 01:08:55;;;;;;;15.10;4.88;;;;;;;;;;5019211;28;20043;-81
2023/08/01 01:11:20;;;;;;;16.80;5.07;;;;;;;;;;5018549;28;20478;-81
2023/08/01 01:13:48;;;;;;;15.18;4.68;;;;;;;;;;5018046;28;20071;-81
2023/08/01 01:16:13;;;;;;;18.67;5.50;;;;;;;;;;5019356;28;20087;-79
2023/08/01 01:18:38;;;;;;;14.25;4.10;;;;;;;;;;5017272;28;20029;-77
2023/08/01 01:21:06;;;;;;;14.13;4.30;;;;;;;;;;5019123;28;20497;-81
2023/08/01 01:23:31;;;;;;;24.35;4.53;;;;;;;;;;5016651;28;20041;-76
2023/08/01 01:25:57;;;;;;;17.50;4.05;;;;;;;;;;5019478;28;20028;-78
2023/08/01 01:28:23;;;;;;;14.35;4.00;;;;;;;;;;5000061;28;20754;-79
2023/08/01 01:30:52;;;;;;;14.45;4.20;;;;;;;;;;5020513;28;20044;-79
2023/08/01 01:33:18;;;;;;;17.63;4.32;;;;;;;;;;5000395;28;20037;-77
2023/08/01 01:35:43;;;;;;;15.25;4.03;;;;;;;;;;5017016;28;20118;-80
2023/08/01 01:38:08;;;;;;;16.08;4.20;;;;;;;;;;5018740;28;20037;-78
2023/08/01 01:40:34;;;;;;;16.05;4.53;;;;;;;;;;5018774;28;20036;-77
2023/08/01 01:43:00;;;;;;;10.55;3.72;;;;;;;;;;5015704;28;20116;-78
2023/08/01 01:45:25;;;;;;;15.65;3.53;;;;;;;;;;5017041;28;20056;-79
2023/08/01 01:47:51;;;;;;;14.07;3.58;;;;;;;;;;5000328;28;20041;-77
2023/08/01 01:50:17;;;;;;;14.50;3.70;;;;;;;;;;5020347;28;20585;-78
2023/08/01 01:52:43;;;;;;;14.88;3.90;;;;;;;;;;5017440;28;20142;-77
2023/08/01 01:55:08;;;;;;;12.98;4.00;;;;;;;;;;5000707;28;20033;-74
2023/08/01 01:57:36;;;;;;;15.15;3.72;;;;;;;;;;5018614;28;20045;-80
2023/08/01 02:00:01;;;;;;;16.17;3.47;;;;;;;;;;4999994;28;20051;-76
2023/08/01 02:02:26;;;;;;;12.32;3.80;;;;;;;;;;5017839;28;20033;-77
2023/08/01 02:04:52;;;;;;;15.52;3.97;;;;;;;;;;5020563;28;20844;-79
2023/08/01 02:07:17;;;;;;;19.75;5.15;;;;;;;;;;5000187;28;20040;-80
2023/08/01 02:09:43;;;;;;;19.23;4.65;;;;;;;;;;5001992;28;20025;-80
2023/08/01 02:12:13;;;;;;;17.27;4.95;;;;;;;;;;5017910;28;20067;-79
2023/08/01 02:14:39;;;;;;;17.92;5.45;;;;;;;;;;5018836;28;20072;-79
2023/08/01 02:17:04;;;;;;;16.02;5.53;;;;;;;;;;4998350;28;20151;-80
2023/08/01 02:19:29;;;;;;;13.90;4.80;;;;;;;;;;4999993;28;20080;-80
2023/08/01 02:21:55;;;;;;;20.15;5.40;;;;;;;;;;5018385;28;20033;-80
2023/08/01 02:24:22;;;;;;;24.40;5.47;;;;;;;;;;4999618;28;20584;-80
2023/08/01 02:26:50;;;;;;;16.80;4.97;;;;;;;;;;5018428;28;20090;-79
2023/08/01 02:29:15;;;;;;;18.85;5.10;;;;;;;;;;5019180;28;20733;-78
2023/08/01 02:31:40;;;;;;;26.23;5.82;;;;;;;;;;5016679;28;20037;-82
2023/08/01 02:34:06;;;;;;;18.90;5.75;;;;;;;;;;5002459;28;22321;-81
2023/08/01 02:36:31;;;;;;;21.77;6.40;;;;;;;;;;5019842;28;20167;-77
2023/08/01 02:38:56;;;;;;;22.15;5.55;;;;;;;;;;4997371;28;20635;-80
2023/08/01 02:41:22;;;;;;;19.67;5.85;;;;;;;;;;5017335;28;20029;-80
2023/08/01 02:43:47;;;;;;;22.52;6.15;;;;;;;;;;5001499;28;20099;-72
2023/08/01 02:46:12;;;;;;;21.50;5.93;;;;;;;;;;5016504;28;20021;-81
2023/08/01 02:48:40;;;;;;;23.25;5.43;;;;;;;;;;5015629;28;20814;-76
2023/08/01 02:51:08;;;;;;;20.50;5.40;;;;;;;;;;5018863;28;20092;-79
2023/08/01 02:53:34;;;;;;;24.42;6.15;;;;;;;;;;5002032;28;20041;-77
2023/08/01 02:55:59;;;;;;;20.67;5.30;;;;;;;;;;5016931;28;20167;-82
2023/08/01 02:58:25;;;;;;;25.95;5.82;;;;;;;;;;5017780;28;20591;-77
2023/08/01 03:00:50;;;;;;;16.50;5.03;;;;;;;;;;5017053;28;20045;-77
2023/08/01 03:03:15;;;;;;;19.50;5.35;;;;;;;;;;5016557;28;20552;-79
2023/08/01 03:05:40;;;;;;;20.67;5.55;;;;;;;;;;5015808;28;20029;-78
2023/08/01 03:08:08;;;;;;;20.05;5.93;;;;;;;;;;5001925;28;20108;-79
2023/08/01 03:10:34;;;;;;;19.98;5.85;;;;;;;;;;5015186;28;20519;-81
2023/08/01 03:12:59;;;;;;;18.95;5.45;;;;;;;;;;5000353;28;20029;-79
2023/08/01 03:15:24;;;;;;;23.27;6.03;;;;;;;;;;5019167;28;20068;-75
2023/08/01 03:17:49;;;;;;;17.20;5.47;;;;;;;;;;5017328;28;20041;-77
2023/08/01 03:20:15;;;;;;;18.02;5.63;;;;;;;;;;5017223;28;20739;-81
2023/08/01 03:22:41;;;;;;;23.65;5.93;;;;;;;;;;4999252;28;20070;-79
2023/08/01 03:25:09;;;;;;;20.27;6.25;;;;;;;;;;5000710;28;21055;-78
2023/08/01 03:27:35;;;;;;;17.95;5.22;;;;;;;;;;5019232;28;20145;-77
2023/08/01 03:30:01;;;;;;;23.95;5.80;;;;;;;;;;5016942;28;20182;-80
2023/08/01 03:32:26;;;;;;;24.88;5.75;;;;;;;;;;5016946;28;20033;-77
2023/08/01 03:34:51;;;;;;;23.98;5.65;;;;;;;;;;5017680;28;20052;-75
2023/08/01 03:37:17;;;;;;;19.85;5.40;;;;;;;;;;5017948;28;20087;-79
2023/08/01 03:39:43;;;;;;;17.90;5.53;;;;;;;;;;5014581;28;20049;-75
2023/08/01 03:42:08;;;;;;;20.70;5.00;;;;;;;;;;5017037;28;20176;-82
2023/08/01 03:44:33;;;;;;;22.30;5.32;;;;;;;;;;5017564;28;20037;-82
2023/08/01 03:46:59;;;;;;;20.42;5.18;;;;;;;;;;5019468;28;20044;-82
2023/08/01 03:49:24;;;;;;;20.63;4.95;;;;;;;;;;5018376;28;20782;-83
2023/08/01 03:51:51;;;;;;;16.73;4.43;;;;;;;;;;4997531;28;20674;-83
2023/08/01 03:54:17;;;;;;;27.13;5.93;;;;;;;;;;5001096;28;20041;-80
2023/08/01 03:56:43;;;;;;;18.17;4.55;;;;;;;;;;5001122;28;20055;-81
2023/08/01 03:59:09;;;;;;;19.27;5.30;;;;;;;;;;5001518;28;20045;-82
2023/08/01 04:01:34;;;;;;;19.50;4.75;;;;;;;;;;5000124;28;20796;-81
2023/08/01 04:04:05;;;;;;;17.65;4.63;;;;;;;;;;5017776;28;20029;-80
2023/08/01 04:06:30;;;;;;;19.45;5.25;;;;;;;;;;5017967;28;20797;-79
2023/08/01 04:08:56;;;;;;;16.73;4.57;;;;;;;;;;5017010;28;20034;-80
2023/08/01 04:11:22;;;;;;;20.52;5.78;;;;;;;;;;4998696;28;20084;-82
2023/08/01 04:13:47;;;;;;;18.50;4.53;;;;;;;;;;5017763;28;20037;-79
2023/08/01 04:16:12;;;;;;;22.48;5.55;;;;;;;;;;5017451;28;20040;-77
2023/08/01 04:18:37;;;;;;;18.60;5.03;;;;;;;;;;5015300;28;20029;-79
2023/08/01 04:21:03;;;;;;;17.10;4.22;;;;;;;;;;5000471;28;20526;-81
2023/08/01 04:23:28;;;;;;;23.58;5.22;;;;;;;;;;5018839;28;20068;-79
2023/08/01 04:25:58;;;;;;;20.02;4.63;;;;;;;;;;5021117;28;20548;-83
2023/08/01 04:28:23;;;;;;;19.42;4.53;;;;;;;;;;5001994;28;20029;-80
2023/08/01 04:30:52;;;;;;;17.92;4.70;;;;;;;;;;5021232;28;20044;-82
2023/08/01 04:33:17;;;;;;;16.83;4.25;;;;;;;;;;5017106;28;20103;-77
2023/08/01 04:35:43;;;;;;;17.25;3.88;;;;;;;;;;5000612;28;20128;-81
2023/08/01 04:38:12;;;;;;;15.55;3.92;;;;;;;;;;5009861;28;21162;-80
2023/08/01 04:40:38;;;;;;;15.35;3.70;;;;;;;;;;5020943;28;20049;-77
2023/08/01 04:43:03;;;;;;;17.52;4.00;;;;;;;;;;5019607;28;20029;-83
2023/08/01 04:45:28;;;;;;;15.93;3.90;;;;;;;;;;5005058;28;20041;-80
2023/08/01 04:47:53;;;;;;;13.50;3.30;;;;;;;;;;5020908;28;20033;-82
2023/08/01 04:50:19;;;;;;;18.15;4.40;;;;;;;;;;5023439;28;20461;-80
2023/08/01 04:52:44;;;;;;;17.25;3.67;;;;;;;;;;5018033;28;20593;-79
2023/08/01 04:55:09;;;;;;;19.08;3.80;;;;;;;;;;5003062;28;20033;-80
2023/08/01 04:57:35;;;;;;;15.02;3.70;;;;;;;;;;5020859;28;22335;-79
2023/08/01 05:00:00;;;;;;;15.23;3.75;;;;;;;;;;5022018;28;20049;-82
2023/08/01 05:02:25;;;;;;;17.58;4.13;;;;;;;;;;5005934;28;21045;-79
2023/08/01 05:04:51;;;;;;;19.17;4.43;;;;;;;;;;5018628;28;20037;-78
2023/08/01 05:07:16;;;;;;;17.23;3.78;;;;;;;;;;5017019;28;20029;-73
2023/08/01 05:09:44;;;;;;;13.90;3.67;;;;;;;;;;5018127;28;20083;-75
2023/08/01 05:12:09;;;;;;;14.73;3.60;;;;;;;;;;5019528;28;20033;-77
2023/08/01 05:14:37;;;;;;;16.17;3.70;;;;;;;;;;4999762;28;20131;-74
2023/08/01 05:17:04;;;;;;;17.02;3.88;;;;;;;;;;5017357;28;20064;-74
2023/08/01 05:19:29;;;;;;;15.00;3.70;;;;;;;;;;4998407;28;20830;-73
2023/08/01 05:21:55;;;;;;;19.85;4.57;;;;;;;;;;4999647;28;20160;-76
2023/08/01 05:24:20;;;;;;;14.55;3.83;;;;;;;;;;4997546;28;20512;-74
2023/08/01 05:26:45;;;;;;;14.23;4.25;;;;;;;;;;5015336;28;20091;-74
2023/08/01 05:29:11;;;;;;;18.23;4.00;;;;;;;;;;5015487;28;20142;-76
2023/08/01 05:31:38;;;;;;;12.75;3.55;;;;;;;;;;4999572;28;20139;-74
2023/08/01 05:34:03;;;;;;;19.88;3.72;;;;;;;;;;4998897;28;20398;-74
2023/08/01 05:36:29;;;;;;;17.40;4.03;;;;;;;;;;5016323;28;20036;-74
2023/08/01 05:38:54;;;;;;;21.13;3.92;;;;;;;;;;5000673;28;20033;-76
2023/08/01 05:41:19;;;;;;;21.88;3.97;;;;;;;;;;4997614;28;20076;-75
2023/08/01 05:43:46;;;;;;;13.98;3.40;;;;;;;;;;5020332;28;20072;-75
2023/08/01 05:46:14;;;;;;;19.80;3.97;;;;;;;;;;5015265;28;20082;-74
2023/08/01 05:48:40;;;;;;;26.13;3.80;;;;;;;;;;4995410;28;20060;-74
2023/08/01 05:51:05;;;;;;;14.95;3.72;;;;;;;;;;5019385;28;20037;-72
2023/08/01 05:53:30;;;;;;;16.02;3.78;;;;;;;;;;4999277;28;20076;-74
2023/08/01 05:55:56;;;;;;;21.52;4.05;;;;;;;;;;5001829;28;20056;-74
2023/08/01 05:58:21;;;;;;;19.27;4.10;;;;;;;;;;5018561;28;20033;-74
2023/08/01 06:00:46;;;;;;;20.27;3.75;;;;;;;;;;5019494;28;20060;-74
2023/08/01 06:03:12;;;;;;;15.55;4.00;;;;;;;;;;4998734;28;20033;-74
2023/08/01 06:05:37;;;;;;;17.75;3.97;;;;;;;;;;5021044;28;20049;-75
2023/08/01 06:08:03;;;;;;;19.70;4.43;;;;;;;;;;5017379;28;20037;-74
2023/08/01 06:10:28;;;;;;;17.77;4.35;;;;;;;;;;5019997;28;20041;-71
2023/08/01 06:12:54;;;;;;;16.60;3.83;;;;;;;;;;5018783;28;20036;-75
2023/08/01 06:15:19;;;;;;;25.73;4.57;;;;;;;;;;4998262;28;20071;-72
2023/08/01 06:17:44;;;;;;;24.15;4.15;;;;;;;;;;5015605;28;20033;-76
2023/08/01 06:20:10;;;;;;;20.88;4.13;;;;;;;;;;5017324;28;20465;-73
2023/08/01 06:22:37;;;;;;;20.65;4.03;;;;;;;;;;4999878;28;20068;-73
2023/08/01 06:25:03;;;;;;;14.52;3.47;;;;;;;;;;5015837;28;20103;-74
2023/08/01 06:27:28;;;;;;;21.83;4.05;;;;;;;;;;4995667;28;20120;-74
2023/08/01 06:29:55;;;;;;;16.13;3.42;;;;;;;;;;5001448;28;20095;-73
2023/08/01 06:32:21;;;;;;;20.17;3.80;;;;;;;;;;4981789;28;20029;-74
2023/08/01 06:34:46;;;;;;;19.58;4.40;;;;;;;;;;5016590;28;20473;-75
2023/08/01 06:37:11;;;;;;;19.95;4.18;;;;;;;;;;5015271;28;20051;-75
2023/08/01 06:39:37;;;;;;;16.88;3.75;;;;;;;;;;5014422;28;20045;-72
2023/08/01 06:42:03;;;;;;;17.73;4.07;;;;;;;;;;5019019;28;20116;-76
2023/08/01 06:44:28;;;;;;;19.55;3.75;;;;;;;;;;5002921;28;20641;-76
2023/08/01 06:46:53;;;;;;;19.77;3.67;;;;;;;;;;5016963;28;20115;-72
2023/08/01 06:49:18;;;;;;;19.45;4.13;;;;;;;;;;5000711;28;20857;-73
2023/08/01 06:51:44;;;;;;;16.55;4.47;;;;;;;;;;5019234;28;20771;-73
2023/08/01 06:54:09;;;;;;;20.02;3.85;;;;;;;;;;5017547;28;20029;-74
2023/08/01 06:56:37;;;;;;;19.90;3.65;;;;;;;;;;5018907;28;20043;-73
2023/08/01 06:59:02;;;;;;;15.60;3.63;;;;;;;;;;5018260;28;20078;-74
2023/08/01 07:01:27;;;;;;;14.38;3.38;;;;;;;;;;4998885;28;20041;-75
2023/08/01 07:03:56;;;;;;;24.65;4.13;;;;;;;;;;4999890;28;20174;-74
2023/08/01 07:06:24;;;;;;;19.15;3.88;;;;;;;;;;5015422;28;20033;-71
2023/08/01 07:08:50;;;;;;;20.17;4.18;;;;;;;;;;5013405;28;20052;-73
2023/08/01 07:11:15;;;;;;;13.68;3.90;;;;;;;;;;5015211;28;20029;-69
2023/08/01 07:13:40;;;;;;;18.50;3.80;;;;;;;;;;4990560;28;20033;-65
2023/08/01 07:16:08;;;;;;;15.43;3.42;;;;;;;;;;4995415;28;20029;-70
2023/08/01 07:18:33;;;;;;;12.43;3.35;;;;;;;;;;5010872;28;20117;-67
2023/08/01 07:21:02;;;;;;;15.82;3.50;;;;;;;;;;5010734;28;20548;-69
2023/08/01 07:23:27;;;;;;;22.25;3.78;;;;;;;;;;4996939;28;20041;-68
2023/08/01 07:25:52;;;;;;;15.07;3.63;;;;;;;;;;5012432;28;22198;-73
2023/08/01 07:28:20;;;;;;;16.45;3.72;;;;;;;;;;4981483;28;20045;-69
2023/08/01 07:30:45;;;;;;;16.73;3.50;;;;;;;;;;5011284;28;20057;-70
2023/08/01 07:33:10;;;;;;;12.55;3.35;;;;;;;;;;5011022;28;22324;-74
2023/08/01 07:35:38;;;;;;;12.40;3.55;;;;;;;;;;5011041;28;20548;-70
2023/08/01 07:38:03;;;;;;;16.67;3.55;;;;;;;;;;5013315;28;20095;-71
2023/08/01 07:40:29;;;;;;;14.10;3.60;;;;;;;;;;5013132;28;20638;-70
2023/08/01 07:42:54;;;;;;;14.38;3.03;;;;;;;;;;5012545;28;20532;-69
2023/08/01 07:45:19;;;;;;;16.45;3.60;;;;;;;;;;5011864;28;20029;-72
2023/08/01 07:47:45;;;;;;;13.27;3.22;;;;;;;;;;5012601;28;20036;-71
2023/08/01 07:50:12;;;;;;;17.75;4.55;;;;;;;;;;5012969;28;20132;-70
2023/08/01 07:52:38;;;;;;;18.00;3.60;;;;;;;;;;4996697;28;20127;-69
2023/08/01 07:55:06;;;;;;;14.00;3.10;;;;;;;;;;4983585;28;20039;-69
2023/08/01 07:57:31;;;;;;;15.48;3.50;;;;;;;;;;4994868;28;20030;-69
2023/08/01 07:59:56;;;;;;;17.08;4.07;;;;;;;;;;4981077;28;20366;-68
2023/08/01 08:02:22;;;;;;;19.73;4.68;;;;;;;;;;5018183;28;20231;-68
2023/08/01 08:04:47;;;;;;;20.08;4.57;;;;;;;;;;5019409;28;20654;-68
2023/08/01 08:07:12;;;;;;;20.42;4.28;;;;;;;;;;5018278;28;20115;-68
2023/08/01 08:09:38;;;;;;;17.98;3.65;;;;;;;;;;5016373;28;20037;-69
2023/08/01 08:12:03;;;;;;;16.73;3.78;;;;;;;;;;5017174;28;20478;-68
2023/08/01 08:14:31;;;;;;;24.15;3.83;;;;;;;;;;5001268;28;20277;-68
2023/08/01 08:16:56;;;;;;;19.13;3.97;;;;;;;;;;5017887;28;20041;-68
2023/08/01 08:19:25;;;;;;;20.25;3.72;;;;;;;;;;5003096;28;20496;-70
2023/08/01 08:21:50;;;;;;;16.00;4.15;;;;;;;;;;5017633;28;20107;-71
2023/08/01 08:24:15;;;;;;;16.85;3.95;;;;;;;;;;5015728;28;20057;-69
2023/08/01 08:26:44;;;;;;;16.48;3.95;;;;;;;;;;5017769;28;20439;-69
2023/08/01 08:29:12;;;;;;;15.50;3.38;;;;;;;;;;5016058;28;20113;-68
2023/08/01 08:31:38;;;;;;;18.30;3.42;;;;;;;;;;5017456;28;20028;-68
2023/08/01 08:34:03;;;;;;;14.85;3.85;;;;;;;;;;5017061;28;20398;-69
2023/08/01 08:36:28;;;;;;;14.05;3.50;;;;;;;;;;4999452;28;20036;-68
2023/08/01 08:38:54;;;;;;;17.58;3.50;;;;;;;;;;5016177;28;20048;-68
2023/08/01 08:41:20;;;;;;;17.52;3.42;;;;;;;;;;4996544;28;20106;-68
2023/08/01 08:43:51;;;;;;;16.55;3.13;;;;;;;;;;5015532;28;20064;-68
2023/08/01 08:46:16;;;;;;;18.08;3.80;;;;;;;;;;5016064;28;20083;-68
2023/08/01 08:48:42;;;;;;;18.73;3.83;;;;;;;;;;5016740;28;20505;-69
2023/08/01 08:51:07;;;;;;;20.35;3.97;;;;;;;;;;5016881;28;20037;-69
2023/08/01 08:53:34;;;;;;;17.20;3.65;;;;;;;;;;5017994;28;20041;-70
2023/08/01 08:56:01;;;;;;;18.50;3.13;;;;;;;;;;4998986;28;20041;-71
2023/08/01 08:58:28;;;;;;;16.38;3.28;;;;;;;;;;5015547;28;20033;-66
2023/08/01 09:00:54;;;;;;;21.02;3.70;;;;;;;;;;4995587;28;20455;-68
2023/08/01 09:03:19;;;;;;;19.95;3.28;;;;;;;;;;4995814;28;20079;-69
2023/08/01 09:05:48;;;;;;;12.02;2.97;;;;;;;;;;5016934;28;20094;-69
2023/08/01 09:08:19;;;;;;;15.65;3.30;;;;;;;;;;5003921;28;20116;-69
2023/08/01 09:10:45;;;;;;;24.73;4.22;;;;;;;;;;5014930;28;20482;-69
2023/08/01 09:13:10;;;;;;;16.95;3.10;;;;;;;;;;5016224;28;20033;-68
2023/08/01 09:15:36;;;;;;;15.00;3.38;;;;;;;;;;4986285;28;20037;-68
2023/08/01 09:18:08;;;;;;;20.55;3.70;;;;;;;;;;5016825;28;20818;-71
2023/08/01 09:20:41;;;;;;;21.95;3.47;;;;;;;;;;5015284;28;20106;-69
2023/08/01 09:23:08;;;;;;;17.00;3.80;;;;;;;;;;5016497;28;20136;-68
2023/08/01 09:25:33;;;;;;;15.85;3.50;;;;;;;;;;4997929;28;20090;-66
2023/08/01 09:28:01;;;;;;;17.67;3.85;;;;;;;;;;4998979;28;20277;-69
2023/08/01 09:30:28;;;;;;;19.42;3.55;;;;;;;;;;5015170;28;20029;-69
2023/08/01 09:32:57;;;;;;;17.98;3.50;;;;;;;;;;5016083;28;20029;-68
2023/08/01 09:35:24;;;;;;;17.75;3.13;;;;;;;;;;5016690;28;20041;-70
2023/08/01 09:37:50;;;;;;;19.30;3.75;;;;;;;;;;5013860;28;20033;-71
2023/08/01 09:40:15;;;;;;;16.90;3.60;;;;;;;;;;4998129;28;20048;-68
2023/08/01 09:42:46;;;;;;;21.50;4.25;;;;;;;;;;5014962;28;20123;-71
2023/08/01 09:45:14;;;;;;;18.17;3.70;;;;;;;;;;4994673;28;20037;-69
2023/08/01 09:47:39;;;;;;;22.73;4.10;;;;;;;;;;5016337;28;20573;-68
2023/08/01 09:50:08;;;;;;;13.57;3.65;;;;;;;;;;5014252;28;20044;-68
2023/08/01 09:52:34;;;;;;;26.88;4.13;;;;;;;;;;4997314;28;20909;-70
2023/08/01 09:54:59;;;;;;;18.65;3.75;;;;;;;;;;5011732;28;20052;-69
2023/08/01 09:57:28;;;;;;;19.45;3.20;;;;;;;;;;4990011;28;20068;-70
2023/08/01 09:59:54;;;;;;;20.52;3.70;;;;;;;;;;5011977;28;20048;-70
2023/08/01 10:02:23;;;;;;;18.30;3.97;;;;;;;;;;5014224;28;21330;-69
2023/08/01 10:04:49;;;;;;;18.08;3.67;;;;;;;;;;4995250;28;20033;-70
2023/08/01 10:07:17;;;;;;;17.48;3.33;;;;;;;;;;5015983;28;20126;-68
2023/08/01 10:09:42;;;;;;;22.02;3.90;;;;;;;;;;5015616;28;20040;-68
2023/08/01 10:12:09;;;;;;;17.73;3.67;;;;;;;;;;5001175;28;20414;-68
2023/08/01 10:14:35;;;;;;;16.25;3.38;;;;;;;;;;5012880;28;20033;-69
2023/08/01 10:17:01;;;;;;;23.23;3.60;;;;;;;;;;4996456;28;20591;-68
2023/08/01 10:19:27;;;;;;;24.13;3.92;;;;;;;;;;5000741;28;20041;-69
2023/08/01 10:21:53;;;;;;;21.83;3.22;;;;;;;;;;5014438;28;20056;-68
2023/08/01 10:24:19;;;;;;;21.85;3.65;;;;;;;;;;4996277;28;20032;-69
2023/08/01 10:26:45;;;;;;;16.23;3.00;;;;;;;;;;5013458;28;20033;-68
2023/08/01 10:29:13;;;;;;;14.93;3.38;;;;;;;;;;5014971;28;20037;-70
2023/08/01 10:31:38;;;;;;;17.88;3.20;;;;;;;;;;5012647;28;20060;-70
2023/08/01 10:34:15;;;;;;;15.93;2.97;;;;;;;;;;5014390;28;22407;-69
2023/08/01 10:36:52;;;;;;;21.60;3.72;;;;;;;;;;5002691;28;21272;-71
2023/08/01 10:39:23;;;;;;;17.33;3.15;;;;;;;;;;5013188;28;20857;-69
2023/08/01 10:41:56;;;;;;;14.52;3.47;;;;;;;;;;4994818;28;20474;-69
2023/08/01 10:44:21;;;;;;;14.93;3.33;;;;;;;;;;4999664;28;20036;-70
2023/08/01 10:46:51;;;;;;;16.55;3.35;;;;;;;;;;5014619;28;20029;-67
2023/08/01 10:49:17;;;;;;;20.95;3.70;;;;;;;;;;5011870;28;20084;-68
2023/08/01 10:51:43;;;;;;;26.95;4.35;;;;;;;;;;4978620;28;20509;-69
2023/08/01 10:54:22;;;;;;;23.40;4.57;;;;;;;;;;4992095;28;20033;-68
2023/08/01 10:56:48;;;;;;;18.73;3.65;;;;;;;;;;5011308;28;20029;-68
2023/08/01 10:59:16;;;;;;;31.02;5.47;;;;;;;;;;5014427;28;20250;-71
2023/08/01 11:01:51;;;;;;;25.88;4.88;;;;;;;;;;5014329;28;20045;-71
2023/08/01 11:04:18;;;;;;;21.90;4.32;;;;;;;;;;5012822;28;20037;-73
2023/08/01 11:06:47;;;;;;;20.48;4.43;;;;;;;;;;4996951;28;20142;-73
2023/08/01 11:09:21;;;;;;;17.08;3.60;;;;;;;;;;5014114;28;20060;-72
2023/08/01 11:11:48;;;;;;;25.95;3.80;;;;;;;;;;5013147;28;20500;-74
2023/08/01 11:14:16;;;;;;;16.77;4.18;;;;;;;;;;4995427;28;20086;-73
2023/08/01 11:16:44;;;;;;;19.65;3.72;;;;;;;;;;4994474;28;20041;-71
2023/08/01 11:19:20;;;;;;;14.30;3.75;;;;;;;;;;4999081;28;20033;-70
2023/08/01 11:21:45;;;;;;;20.05;3.38;;;;;;;;;;5011469;28;20071;-74
2023/08/01 11:24:11;;;;;;;15.50;3.38;;;;;;;;;;5015398;28;22226;-71
2023/08/01 11:26:39;;;;;;;14.23;3.53;;;;;;;;;;5015316;28;20502;-68
2023/08/01 11:29:07;;;;;;;13.15;3.00;;;;;;;;;;5018510;28;20116;-70
2023/08/01 11:31:32;;;;;;;15.93;3.30;;;;;;;;;;4999119;28;20200;-69
2023/08/01 11:33:58;;;;;;;20.98;4.00;;;;;;;;;;4999471;28;20055;-68
2023/08/01 11:36:29;;;;;;;13.82;3.78;;;;;;;;;;5013888;28;20149;-69
2023/08/01 11:38:56;;;;;;;17.48;4.03;;;;;;;;;;5016276;28;20057;-69
2023/08/01 11:41:21;;;;;;;21.02;4.20;;;;;;;;;;5015068;28;20079;-68
2023/08/01 11:43:47;;;;;;;22.38;4.88;;;;;;;;;;5016225;28;20033;-69
2023/08/01 11:46:14;;;;;;;16.08;3.70;;;;;;;;;;5014842;28;20037;-70
2023/08/01 11:48:44;;;;;;;16.85;3.65;;;;;;;;;;5013037;28;20039;-70
2023/08/01 11:51:09;;;;;;;14.45;3.05;;;;;;;;;;4994926;28;20033;-69
2023/08/01 11:53:38;;;;;;;12.90;2.92;;;;;;;;;;5006745;28;20049;-70
2023/08/01 11:56:04;;;;;;;10.68;2.20;;;;;;;;;;5015235;28;20572;-75
2023/08/01 11:58:32;;;;;;;16.05;2.70;;;;;;;;;;5014090;28;20029;-68
2023/08/01 12:01:06;;;;;;;15.82;2.83;;;;;;;;;;5010702;28;20040;-69
2023/08/01 12:03:33;;;;;;;16.63;2.50;;;;;;;;;;5014485;28;20095;-71
2023/08/01 12:06:07;;;;;;;11.90;2.17;;;;;;;;;;5011704;28;20080;-71
2023/08/01 12:08:33;;;;;;;16.90;2.45;;;;;;;;;;5010855;28;20091;-71
2023/08/01 12:10:59;;;;;;;8.90;1.85;;;;;;;;;;4993754;28;20033;-70
2023/08/01 12:13:25;;;;;;;11.93;2.42;;;;;;;;;;5011881;28;20041;-67
2023/08/01 12:15:51;;;;;;;15.00;2.38;;;;;;;;;;5000383;28;20112;-69
2023/08/01 12:18:23;;;;;;;9.55;1.90;;;;;;;;;;4997755;28;20599;-68
2023/08/01 12:20:48;;;;;;;13.15;2.40;;;;;;;;;;4995300;28;20678;-68
2023/08/01 12:23:14;;;;;;;12.50;3.13;;;;;;;;;;4997057;28;20029;-68
2023/08/01 12:25:41;;;;;;;18.90;3.58;;;;;;;;;;5014161;28;20033;-68
2023/08/01 12:28:09;;;;;;;11.35;2.50;;;;;;;;;;5015684;28;20064;-69
2023/08/01 12:30:34;;;;;;;12.70;2.17;;;;;;;;;;4995434;28;20172;-70
2023/08/01 12:33:02;;;;;;;15.00;2.92;;;;;;;;;;4997585;28;20041;-69
2023/08/01 12:35:27;;;;;;;17.25;2.45;;;;;;;;;;5012866;28;20517;-69
2023/08/01 12:37:53;;;;;;;16.63;2.67;;;;;;;;;;4999675;28;20029;-68
2023/08/01 12:40:23;;;;;;;15.73;2.50;;;;;;;;;;4978865;28;20056;-68
2023/08/01 12:42:48;;;;;;;14.00;2.90;;;;;;;;;;5012910;28;20402;-68
2023/08/01 12:45:13;;;;;;;17.67;3.08;;;;;;;;;;5014479;28;20099;-69
2023/08/01 12:47:39;;;;;;;15.85;3.38;;;;;;;;;;5014164;28;20033;-67
2023/08/01 12:50:04;;;;;;;17.90;3.38;;;;;;;;;;4998695;28;20366;-65
2023/08/01 12:52:30;;;;;;;42.47;5.85;;;;;;;;;;5013609;28;20229;-67
2023/08/01 12:54:55;;;;;;;34.38;4.55;;;;;;;;;;5013180;28;20079;-65
2023/08/01 12:57:21;;;;;;;19.33;3.53;;;;;;;;;;4986378;28;20070;-67
2023/08/01 12:59:46;;;;;;;15.65;2.90;;;;;;;;;;5009897;28;20049;-69
2023/08/01 13:02:12;;;;;;;11.63;2.60;;;;;;;;;;5014410;28;21884;-67
2023/08/01 13:04:38;;;;;;;16.88;3.05;;;;;;;;;;4997360;28;20477;-67
2023/08/01 13:07:03;;;;;;;19.85;3.40;;;;;;;;;;5014473;28;21770;-67
2023/08/01 13:09:31;;;;;;;15.13;2.90;;;;;;;;;;4996682;28;20038;-68
2023/08/01 13:11:56;;;;;;;11.48;2.83;;;;;;;;;;5017094;28;20096;-69
2023/08/01 13:14:24;;;;;;;10.95;2.53;;;;;;;;;;5015342;28;20476;-70
2023/08/01 13:16:51;;;;;;;15.38;2.35;;;;;;;;;;5013595;28;20082;-69
2023/08/01 13:19:17;;;;;;;13.93;3.28;;;;;;;;;;5013278;28;20513;-69
2023/08/01 13:21:43;;;;;;;15.45;2.70;;;;;;;;;;5014648;28;20378;-69
2023/08/01 13:24:08;;;;;;;11.20;2.40;;;;;;;;;;4996528;28;20057;-68
2023/08/01 13:26:33;;;;;;;12.45;2.70;;;;;;;;;;5014671;28;20091;-69
2023/08/01 13:28:59;;;;;;;11.02;2.60;;;;;;;;;;4978559;28;20147;-70
2023/08/01 13:31:25;;;;;;;14.05;3.05;;;;;;;;;;5014827;28;20385;-69
2023/08/01 13:33:53;;;;;;;20.38;3.30;;;;;;;;;;5014897;28;20074;-69
2023/08/01 13:36:18;;;;;;;19.80;2.95;;;;;;;;;;5015691;28;20033;-69
2023/08/01 13:38:43;;;;;;;11.02;2.80;;;;;;;;;;5016155;28;20537;-69
2023/08/01 13:41:09;;;;;;;10.43;2.53;;;;;;;;;;5012976;28;20534;-68
2023/08/01 13:43:37;;;;;;;18.25;2.90;;;;;;;;;;4996004;28;20106;-69
2023/08/01 13:46:15;;;;;;;14.60;2.83;;;;;;;;;;5001447;28;20167;-67
2023/08/01 13:48:41;;;;;;;12.18;3.10;;;;;;;;;;4999492;28;20048;-70
2023/08/01 13:51:06;;;;;;;14.82;3.30;;;;;;;;;;5012981;28;20196;-67
2023/08/01 13:53:31;;;;;;;17.30;2.70;;;;;;;;;;5011633;28;20062;-67
2023/08/01 13:55:59;;;;;;;19.33;3.28;;;;;;;;;;5014794;28;20597;-69
2023/08/01 13:58:27;;;;;;;13.20;2.65;;;;;;;;;;5016075;28;20029;-68
2023/08/01 14:00:52;;;;;;;17.63;3.58;;;;;;;;;;4994517;28;20045;-69
2023/08/01 14:03:17;;;;;;;17.13;2.97;;;;;;;;;;5010745;28;20129;-71
2023/08/01 14:05:42;;;;;;;15.52;3.05;;;;;;;;;;5010600;28;20103;-67
2023/08/01 14:08:08;;;;;;;17.17;3.40;;;;;;;;;;4994594;28;20068;-70
2023/08/01 14:10:33;;;;;;;17.08;3.70;;;;;;;;;;5001973;28;20489;-70
2023/08/01 14:12:59;;;;;;;13.45;2.88;;;;;;;;;;5008705;28;20037;-69
2023/08/01 14:15:24;;;;;;;15.15;2.90;;;;;;;;;;4992901;28;20095;-67
2023/08/01 14:17:49;;;;;;;14.30;2.58;;;;;;;;;;5014661;28;20071;-67
2023/08/01 14:20:17;;;;;;;14.23;3.80;;;;;;;;;;5010603;28;22227;-66
2023/08/01 14:22:42;;;;;;;11.95;2.85;;;;;;;;;;5009565;28;20037;-66
2023/08/01 14:25:08;;;;;;;19.20;4.07;;;;;;;;;;5011429;28;20039;-67